Time;durP1;ratioP1;P1;durP2;ratioP2;P2;SDS_P1;SDS_P2;PMS_P1;PMS_P2;Temp;Humidity;BMP_temperature;BMP_pressure;BME280_temperature;BME280_humidity;BME280_pressure;Samples;Min_cycle;Max_cycle;Signal;HPM_P1;HPM_P2
2022/12/29 00:01:13;;;;;;;70.67;6.70;;;;;;;6.33;100.00;149047.94;5053982;28;20024;-69
2022/12/29 00:03:38;;;;;;;9.80;7.17;;;;;;;6.33;100.00;149047.94;5053032;28;20030;-69
2022/12/29 00:06:03;;;;;;;8.53;7.33;;;;;;;6.33;100.00;149047.94;5048152;28;20033;-70
2022/12/29 00:08:41;;;;;;;10.97;6.20;;;;;;;6.33;100.00;149047.94;5053393;28;20056;-69
2022/12/29 00:11:11;;;;;;;103.53;6.77;;;;;;;6.33;100.00;149047.94;5053074;28;20032;-69
2022/12/29 00:16:21;;;;;;;12.80;5.87;;;;;;;6.33;100.00;149047.94;5053888;28;20123;-69
2022/12/29 00:18:47;;;;;;;8.10;6.93;;;;;;;6.33;100.00;149047.94;5052172;28;20524;-69
2022/12/29 00:35:10;;;;;;;7.80;5.00;;;;;;;6.33;100.00;149047.94;5047219;28;20041;-68
2022/12/29 00:45:52;;;;;;;7.23;4.87;;;;;;;6.33;100.00;149047.94;5052716;28;20405;-68
2022/12/29 00:49:30;;;;;;;5.33;3.97;;;;;;;6.33;100.00;149047.94;5052858;28;20041;-70
2022/12/29 00:51:06;;;;;;;6.73;5.13;;;;;;;6.33;100.00;149047.94;5044581;28;20045;-69
2022/12/29 00:53:32;;;;;;;5.90;4.10;;;;;;;6.33;100.00;149047.94;5050433;28;20040;-69
2022/12/29 00:55:57;;;;;;;7.20;4.57;;;;;;;6.33;100.00;149047.94;5048412;28;20025;-70
2022/12/29 00:58:23;;;;;;;6.97;4.90;;;;;;;-145.18;100.00;149047.94;5052555;28;20071;-69
2022/12/29 01:00:48;;;;;;;35.30;5.13;;;;;;;6.33;100.00;149047.94;5052650;28;20040;-69
2022/12/29 01:03:13;;;;;;;6.90;5.23;;;;;;;6.33;100.00;149047.94;5052688;28;20441;-68
2022/12/29 01:05:39;;;;;;;7.03;5.60;;;;;;;6.33;100.00;149047.94;5052334;28;20385;-69
2022/12/29 01:08:04;;;;;;;487.63;16.43;;;;;;;6.33;100.00;149047.94;5051482;28;20037;-68
2022/12/29 01:10:30;;;;;;;7.00;4.90;;;;;;;6.33;100.00;149047.94;5052225;28;20060;-69
2022/12/29 01:12:55;;;;;;;6.97;5.40;;;;;;;6.33;100.00;149047.94;5036010;28;20389;-68
2022/12/29 01:15:21;;;;;;;7.27;5.50;;;;;;;6.33;100.00;149047.94;5052154;28;20029;-69
2022/12/29 01:17:46;;;;;;;7.37;5.67;;;;;;;6.33;100.00;149047.94;5052859;28;20021;-69
2022/12/29 01:20:12;;;;;;;6.43;4.87;;;;;;;6.33;100.00;149047.94;5051434;28;20037;-68
2022/12/29 01:22:38;;;;;;;8.27;4.80;;;;;;;6.33;100.00;149047.94;5052704;28;20021;-69
2022/12/29 01:25:04;;;;;;;7.43;5.10;;;;;;;6.33;100.00;149047.94;5051390;28;20036;-69
2022/12/29 01:27:30;;;;;;;6.00;4.30;;;;;;;-145.18;100.00;149047.94;5049795;28;20035;-69
2022/12/29 01:29:55;;;;;;;6.00;4.30;;;;;;;6.33;100.00;149047.94;5041390;28;20041;-68
2022/12/29 01:32:20;;;;;;;5.80;4.40;;;;;;;6.33;100.00;149047.94;5050093;28;20392;-69
2022/12/29 01:34:46;;;;;;;6.43;4.57;;;;;;;6.33;100.00;149047.94;5051456;28;20033;-69
2022/12/29 01:37:11;;;;;;;6.33;4.23;;;;;;;-145.18;100.00;114074.00;5050108;28;20115;-69
2022/12/29 01:39:37;;;;;;;5.50;3.80;;;;;;;6.33;100.00;149047.94;5048640;28;20412;-69
2022/12/29 01:42:02;;;;;;;6.57;4.63;;;;;;;6.33;100.00;149047.94;5052459;28;20076;-69
2022/12/29 01:44:51;;;;;;;84.30;5.40;;;;;;;6.33;100.00;149047.94;5049953;28;20033;-69
2022/12/29 01:47:38;;;;;;;7.90;5.00;;;;;;;6.33;100.00;149047.94;5050536;28;20035;-68
2022/12/29 01:50:12;;;;;;;5.93;4.23;;;;;;;6.33;100.00;149047.94;5050311;28;20041;-69
2022/12/29 01:52:44;;;;;;;5.83;4.70;;;;;;;6.33;100.00;149047.94;5045167;28;20081;-69
2022/12/29 01:55:11;;;;;;;6.13;4.73;;;;;;;6.33;100.00;149047.94;5045660;28;20475;-68
2022/12/29 01:57:40;;;;;;;6.37;4.60;;;;;;;6.33;100.00;149047.94;5046050;28;20037;-69
2022/12/29 02:00:13;;;;;;;5.90;4.40;;;;;;;6.33;100.00;149047.94;5044701;28;20041;-70
2022/12/29 02:02:41;;;;;;;6.50;3.97;;;;;;;6.33;100.00;149047.94;5045375;28;20106;-73
2022/12/29 02:05:20;;;;;;;6.50;4.20;;;;;;;-145.18;100.00;114074.00;5055090;22;20045;-65
2022/12/29 02:07:48;;;;;;;6.23;4.90;;;;;;;6.33;100.00;149047.94;5047530;28;20029;-65
2022/12/29 02:10:13;;;;;;;5.43;3.67;;;;;;;6.33;100.00;149047.94;5050356;28;20040;-64
2022/12/29 02:12:39;;;;;;;5.17;3.73;;;;;;;6.33;100.00;149047.94;5051707;28;20024;-64
2022/12/29 02:15:05;;;;;;;6.20;4.80;;;;;;;6.33;100.00;149047.94;5048658;28;20021;-65
2022/12/29 02:18:07;;;;;;;5.60;4.00;;;;;;;6.33;100.00;149047.94;5035292;28;20044;-65
2022/12/29 02:21:14;;;;;;;5.57;4.10;;;;;;;-145.18;100.00;114074.00;5046237;28;20021;-65
2022/12/29 02:23:42;;;;;;;6.10;4.23;;;;;;;6.33;100.00;149047.94;5048478;28;20047;-64
2022/12/29 02:26:16;;;;;;;6.20;3.80;;;;;;;6.33;100.00;149047.94;5050961;28;20104;-64
2022/12/29 02:28:54;;;;;;;5.53;4.33;;;;;;;6.33;100.00;149047.94;5049884;28;20029;-65
2022/12/29 02:31:40;;;;;;;4.93;3.60;;;;;;;6.33;100.00;149047.94;5051142;28;20119;-64
2022/12/29 02:34:26;;;;;;;4.57;3.10;;;;;;;6.33;100.00;149047.94;5043553;28;20536;-64
2022/12/29 02:37:21;;;;;;;4.97;3.30;;;;;;;6.33;100.00;149047.94;5048393;28;20491;-64
2022/12/29 02:39:57;;;;;;;4.57;3.10;;;;;;;6.33;100.00;149047.94;5040622;28;20439;-64
2022/12/29 02:42:46;;;;;;;5.90;2.73;;;;;;;6.33;100.00;149047.94;5051533;28;20029;-64
2022/12/29 02:45:27;;;;;;;27.87;2.23;;;;;;;6.33;100.00;149047.94;5048609;28;20029;-63
2022/12/29 02:48:12;;;;;;;4.07;2.50;;;;;;;6.33;100.00;149047.94;5051484;28;20079;-64
2022/12/29 02:50:43;;;;;;;4.27;2.20;;;;;;;6.33;100.00;149047.94;5048583;28;20484;-64
2022/12/29 02:53:10;;;;;;;3.37;2.00;;;;;;;;;;5050451;28;20523;-64
2022/12/29 02:55:36;;;;;;;3.10;1.90;;;;;;;6.33;100.00;149047.94;5049556;28;20055;-65
2022/12/29 02:58:20;;;;;;;9.27;2.37;;;;;;;6.33;100.00;149047.94;5049744;28;20041;-65
2022/12/29 03:01:24;;;;;;;5.03;2.40;;;;;;;6.33;100.00;149047.94;5048137;28;20622;-64
2022/12/29 03:04:23;;;;;;;4.90;2.17;;;;;;;6.33;100.00;149047.94;5044890;28;20138;-64
2022/12/29 03:07:00;;;;;;;4.10;2.30;;;;;;;6.33;100.00;149047.94;5049937;28;20127;-64
2022/12/29 03:09:36;;;;;;;4.37;3.07;;;;;;;6.33;100.00;149047.94;5050455;28;20056;-64
2022/12/29 03:18:13;;;;;;;114.00;5.22;;;;;;;6.33;100.00;149047.94;5055443;28;20047;-64
2022/12/29 03:20:45;;;;;;;8.93;4.10;;;;;;;6.33;100.00;149047.94;5053120;28;20029;-64
2022/12/29 03:23:13;;;;;;;5.90;4.27;;;;;;;6.33;100.00;149047.94;5052061;28;20432;-64
2022/12/29 03:25:46;;;;;;;5.07;3.33;;;;;;;6.33;100.00;149047.94;5053523;28;20020;-64
2022/12/29 03:28:18;;;;;;;5.40;3.60;;;;;;;6.33;100.00;149047.94;5049343;28;20030;-63
2022/12/29 03:30:46;;;;;;;6.30;4.60;;;;;;;6.33;100.00;149047.94;5046882;28;20036;-63
2022/12/29 03:33:15;;;;;;;5.30;3.80;;;;;;;6.33;100.00;149047.94;5053379;28;20112;-64
2022/12/29 03:35:44;;;;;;;9.90;5.37;;;;;;;6.33;100.00;149047.94;5050121;28;20025;-64
2022/12/29 03:38:24;;;;;;;6.60;5.30;;;;;;;6.33;100.00;149047.94;5053109;28;20435;-64
2022/12/29 03:40:52;;;;;;;5.90;4.23;;;;;;;;;;5050956;28;20037;-64
2022/12/29 03:43:18;;;;;;;7.30;5.13;;;;;;;6.33;100.00;149047.94;5053099;28;20745;-65
2022/12/29 03:45:43;;;;;;;6.13;4.53;;;;;;;;;;5042108;28;20035;-64
2022/12/29 03:48:08;;;;;;;5.87;3.63;;;;;;;6.33;100.00;149047.94;5053739;28;20024;-64
2022/12/29 03:50:34;;;;;;;7.60;4.93;;;;;;;-145.18;100.00;114074.00;5053342;28;20372;-64
2022/12/29 03:52:59;;;;;;;5.07;3.60;;;;;;;-145.18;100.00;114074.00;5042450;28;20376;-64
2022/12/29 03:55:25;;;;;;;4.73;3.47;;;;;;;-145.18;100.00;114074.00;5046882;28;20025;-64
2022/12/29 03:57:50;;;;;;;6.73;4.60;;;;;;;-145.18;100.00;149047.94;5054152;28;20502;-64
2022/12/29 04:00:15;;;;;;;6.17;5.00;;;;;;;6.33;100.00;149047.94;5052131;28;20035;-63
2022/12/29 04:02:41;;;;;;;7.00;4.43;;;;;;;6.33;100.00;149047.94;5038120;28;20029;-63
2022/12/29 04:05:07;;;;;;;6.77;4.47;;;;;;;6.33;100.00;149047.94;5049314;28;20025;-63
2022/12/29 04:07:33;;;;;;;6.23;4.67;;;;;;;6.33;100.00;149047.94;5047664;28;20424;-64
2022/12/29 04:09:58;;;;;;;7.50;4.50;;;;;;;6.33;100.00;149047.94;5051654;28;20035;-63
2022/12/29 04:12:23;;;;;;;7.83;5.30;;;;;;;6.33;100.00;149047.94;5054108;28;20082;-64
2022/12/29 04:14:49;;;;;;;7.27;4.73;;;;;;;6.33;100.00;149047.94;5051349;28;20036;-63
2022/12/29 04:17:14;;;;;;;5.90;4.20;;;;;;;6.33;100.00;149047.94;5052916;28;20044;-63
2022/12/29 04:19:39;;;;;;;6.10;3.87;;;;;;;6.33;100.00;149047.94;5052553;28;20029;-62
2022/12/29 04:22:05;;;;;;;6.10;3.93;;;;;;;6.33;100.00;149047.94;5046635;28;20039;-63
2022/12/29 04:24:30;;;;;;;3.93;2.57;;;;;;;6.33;100.00;149047.94;5052516;28;20020;-63
2022/12/29 04:26:56;;;;;;;4.53;3.17;;;;;;;6.33;100.00;149047.94;5053834;28;20041;-63
2022/12/29 04:29:21;;;;;;;5.00;3.43;;;;;;;6.33;100.00;149047.94;5052829;28;20112;-63
2022/12/29 04:31:47;;;;;;;5.87;3.53;;;;;;;6.33;100.00;149047.94;5053270;28;20031;-63
2022/12/29 04:34:12;;;;;;;5.07;3.50;;;;;;;6.33;100.00;149047.94;5052490;28;20025;-63
2022/12/29 04:36:39;;;;;;;4.23;2.93;;;;;;;6.33;100.00;149047.94;5052473;28;20120;-63
2022/12/29 04:39:05;;;;;;;4.53;2.90;;;;;;;6.33;100.00;149047.94;5053268;28;20025;-63
2022/12/29 04:41:30;;;;;;;4.67;2.93;;;;;;;6.33;100.00;149047.94;5053134;28;20032;-63
2022/12/29 04:43:56;;;;;;;5.10;3.30;;;;;;;6.33;100.00;149047.94;5051007;28;20040;-63
2022/12/29 04:46:21;;;;;;;4.70;2.63;;;;;;;6.33;100.00;149047.94;5041928;28;20029;-63
2022/12/29 04:48:46;;;;;;;3.97;2.00;;;;;;;6.33;100.00;149047.94;5052491;28;20385;-63
2022/12/29 04:51:12;;;;;;;4.20;2.27;;;;;;;6.33;100.00;149047.94;5052575;28;20149;-63
2022/12/29 04:53:37;;;;;;;3.27;1.80;;;;;;;;;;5051873;28;20028;-63
2022/12/29 04:56:02;;;;;;;3.40;1.77;;;;;;;6.33;100.00;149047.94;5051914;28;20036;-62
2022/12/29 04:58:28;;;;;;;3.67;1.73;;;;;;;-145.18;100.00;114074.00;5050261;28;20186;-63
2022/12/29 05:00:53;;;;;;;3.53;1.60;;;;;;;6.33;100.00;149047.94;5052285;28;20037;-62
2022/12/29 05:03:19;;;;;;;2.80;1.50;;;;;;;6.33;100.00;149047.94;5052944;28;20064;-63
2022/12/29 05:05:44;;;;;;;2.83;1.40;;;;;;;6.33;100.00;149047.94;5051581;28;20059;-63
2022/12/29 05:08:09;;;;;;;3.90;1.57;;;;;;;-145.18;100.00;114074.00;5050561;28;20060;-63
2022/12/29 05:10:35;;;;;;;3.27;1.77;;;;;;;-145.18;100.00;114074.00;5046705;28;20404;-62
2022/12/29 05:13:00;;;;;;;2.13;1.10;;;;;;;-145.18;100.00;114074.00;5043824;28;20051;-63
2022/12/29 05:15:26;;;;;;;3.00;1.30;;;;;;;6.33;100.00;149047.94;5052268;28;20021;-63
2022/12/29 05:17:52;;;;;;;3.43;1.50;;;;;;;-145.18;100.00;114074.00;5052711;28;20037;-63
2022/12/29 05:20:17;;;;;;;5.00;1.63;;;;;;;-145.18;100.00;114074.00;5051432;28;20033;-62
2022/12/29 05:22:42;;;;;;;1.70;1.00;;;;;;;6.33;100.00;149047.94;5052508;28;20032;-62
2022/12/29 05:25:09;;;;;;;4.00;1.57;;;;;;;6.33;100.00;149047.94;5050789;28;20055;-62
2022/12/29 05:27:34;;;;;;;2.50;1.20;;;;;;;6.33;100.00;149047.94;5047044;28;20449;-62
2022/12/29 05:29:59;;;;;;;2.87;1.17;;;;;;;6.33;100.00;149047.94;5046452;28;20022;-63
2022/12/29 05:32:25;;;;;;;2.83;1.30;;;;;;;6.33;100.00;149047.94;5032471;28;20025;-63
2022/12/29 05:34:50;;;;;;;2.80;1.20;;;;;;;6.33;100.00;149047.94;5044342;28;20029;-63
2022/12/29 05:37:16;;;;;;;2.83;1.50;;;;;;;6.33;100.00;149047.94;5050843;28;20090;-63
2022/12/29 05:39:41;;;;;;;3.60;1.30;;;;;;;6.33;100.00;149047.94;5052143;28;20033;-62
2022/12/29 05:42:07;;;;;;;6.00;1.50;;;;;;;6.33;100.00;149047.94;5047839;28;20066;-62
2022/12/29 05:44:32;;;;;;;3.60;1.70;;;;;;;6.33;100.00;149047.94;5043182;28;20108;-62
2022/12/29 05:46:57;;;;;;;3.03;1.50;;;;;;;6.33;100.00;149047.94;5052185;28;20033;-63
2022/12/29 05:49:23;;;;;;;2.77;1.30;;;;;;;6.33;100.00;149047.94;5051616;28;20036;-63
2022/12/29 05:51:48;;;;;;;4.63;2.00;;;;;;;6.33;100.00;149047.94;5050334;28;20486;-63
2022/12/29 05:54:13;;;;;;;3.07;1.63;;;;;;;;;;5050172;28;20043;-64
2022/12/29 05:56:39;;;;;;;4.00;1.60;;;;;;;6.33;100.00;149047.94;5050947;28;20103;-63
2022/12/29 05:59:04;;;;;;;4.43;1.70;;;;;;;;;;5045822;28;20033;-62
2022/12/29 06:01:29;;;;;;;3.07;1.70;;;;;;;-145.18;100.00;149047.94;5040252;28;20119;-63
2022/12/29 06:03:55;;;;;;;4.03;1.90;;;;;;;-145.18;100.00;149047.94;5047557;28;20029;-63
2022/12/29 06:06:20;;;;;;;55.27;2.53;;;;;;;-145.18;100.00;114074.00;5047586;28;20469;-63
2022/12/29 06:08:46;;;;;;;3.80;1.80;;;;;;;;;;5035553;28;20369;-64
2022/12/29 06:11:11;;;;;;;3.40;1.70;;;;;;;-145.18;100.00;114074.00;5051657;28;20044;-63
2022/12/29 06:13:36;;;;;;;6.43;2.27;;;;;;;-145.18;100.00;149047.94;5050122;28;20036;-62
2022/12/29 06:16:02;;;;;;;5.77;2.03;;;;;;;;;;5051443;28;20552;-63
2022/12/29 06:18:27;;;;;;;3.87;2.00;;;;;;;6.33;100.00;149047.94;5050089;28;20491;-63
2022/12/29 06:20:53;;;;;;;114.70;3.90;;;;;;;-145.18;100.00;114074.00;5051231;28;20037;-64
2022/12/29 06:23:18;;;;;;;4.00;1.97;;;;;;;6.33;100.00;149047.94;5050236;28;20061;-62
2022/12/29 06:25:44;;;;;;;3.60;1.67;;;;;;;6.33;100.00;149047.94;5050905;28;20113;-63
2022/12/29 06:28:10;;;;;;;5.20;2.40;;;;;;;6.33;100.00;149047.94;5051269;28;20024;-63
2022/12/29 06:30:36;;;;;;;137.20;5.50;;;;;;;-145.18;100.00;149047.94;5050440;28;20043;-63
2022/12/29 06:33:01;;;;;;;5.27;2.00;;;;;;;;;;5051602;28;20146;-63
2022/12/29 06:35:26;;;;;;;3.17;1.47;;;;;;;6.33;100.00;149047.94;5042488;28;20048;-62
2022/12/29 06:37:51;;;;;;;4.20;1.97;;;;;;;;;;5041629;28;20033;-62
2022/12/29 06:40:17;;;;;;;2.87;1.53;;;;;;;6.33;100.00;149047.94;5051265;28;20028;-63
2022/12/29 06:42:42;;;;;;;2.93;1.47;;;;;;;;;;5051318;28;20037;-64
2022/12/29 06:45:08;;;;;;;3.47;1.57;;;;;;;6.33;100.00;149047.94;5045072;28;20369;-63
2022/12/29 06:47:35;;;;;;;5.23;1.70;;;;;;;6.33;100.00;149047.94;5050756;28;20498;-63
2022/12/29 06:50:00;;;;;;;9.10;2.10;;;;;;;6.33;100.00;149047.94;5049548;28;20036;-62
2022/12/29 06:52:26;;;;;;;5.53;2.10;;;;;;;6.33;100.00;149047.94;5050053;28;20464;-63
2022/12/29 06:54:51;;;;;;;6.20;1.83;;;;;;;6.33;100.00;149047.94;5050529;28;20020;-62
2022/12/29 06:57:17;;;;;;;5.53;1.83;;;;;;;-145.18;100.00;114074.00;5051029;28;20033;-62
2022/12/29 06:59:43;;;;;;;5.20;1.83;;;;;;;-145.18;100.00;149047.94;5049789;28;20608;-62
2022/12/29 07:02:11;;;;;;;231.37;5.73;;;;;;;6.33;100.00;149047.94;5039213;28;20032;-62
2022/12/29 07:04:36;;;;;;;3.87;1.10;;;;;;;6.33;100.00;149047.94;5049427;28;20048;-63
2022/12/29 07:07:02;;;;;;;6.20;1.67;;;;;;;-145.18;100.00;114074.00;5050779;28;20163;-62
2022/12/29 07:09:27;;;;;;;5.10;1.00;;;;;;;-145.18;100.00;114074.00;5047118;28;20059;-62
2022/12/29 07:11:53;;;;;;;28.63;1.83;;;;;;;-145.18;100.00;114074.00;5048894;28;20043;-63
2022/12/29 07:14:18;;;;;;;5.60;1.10;;;;;;;-145.18;100.00;114074.00;5046941;28;20061;-63
2022/12/29 07:16:44;;;;;;;2.57;0.80;;;;;;;-145.18;100.00;114074.00;5050624;28;20048;-63
2022/12/29 07:19:09;;;;;;;1.90;0.70;;;;;;;-145.18;100.00;114074.00;5045809;28;20075;-63
2022/12/29 07:21:34;;;;;;;4.60;1.50;;;;;;;-145.18;100.00;114074.00;5050626;28;20029;-63
2022/12/29 07:24:00;;;;;;;3.27;0.80;;;;;;;-145.18;100.00;114074.00;5050769;28;20104;-63
2022/12/29 07:26:25;;;;;;;2.93;0.67;;;;;;;-145.18;100.00;114074.00;5045567;28;20021;-63
2022/12/29 07:28:51;;;;;;;1.97;0.50;;;;;;;-145.18;100.00;114074.00;5049731;28;20116;-63
2022/12/29 07:31:19;;;;;;;3.53;1.00;;;;;;;-145.18;100.00;114074.00;5050172;28;20024;-62
2022/12/29 07:33:45;;;;;;;3.37;0.70;;;;;;;-145.18;100.00;114074.00;5049737;28;20033;-64
2022/12/29 07:36:12;;;;;;;2.97;0.70;;;;;;;-145.18;100.00;114074.00;5049959;28;20058;-62
2022/12/29 07:38:37;;;;;;;5.53;0.80;;;;;;;-145.18;100.00;114074.00;5048290;28;20040;-62
2022/12/29 07:41:03;;;;;;;32.67;1.73;;;;;;;-145.18;100.00;114074.00;5049987;28;20029;-62
2022/12/29 07:43:28;;;;;;;2.13;0.83;;;;;;;-145.18;100.00;114074.00;5047515;28;20379;-61
2022/12/29 07:45:53;;;;;;;3.20;0.80;;;;;;;-145.18;100.00;114074.00;5048953;28;20082;-62
2022/12/29 07:48:19;;;;;;;4.70;1.13;;;;;;;-145.18;100.00;149047.94;5049964;28;20054;-63
2022/12/29 07:50:44;;;;;;;2.43;0.77;;;;;;;-145.18;100.00;114074.00;5047558;28;20040;-62
2022/12/29 07:53:10;;;;;;;5.03;1.00;;;;;;;-145.18;100.00;114074.00;5050377;28;20037;-61
2022/12/29 07:55:35;;;;;;;4.83;1.10;;;;;;;-145.18;100.00;114074.00;5048942;28;20021;-62
2022/12/29 07:58:01;;;;;;;3.63;1.17;;;;;;;-145.18;100.00;114074.00;5049438;28;20064;-62
2022/12/29 08:00:26;;;;;;;7.50;1.93;;;;;;;6.33;100.00;149047.94;5043895;28;20024;-61
2022/12/29 08:02:52;;;;;;;3.23;1.00;;;;;;;-145.18;100.00;114074.00;5053955;28;20090;-61
2022/12/29 08:05:18;;;;;;;4.53;1.07;;;;;;;-145.18;100.00;114074.00;5052844;28;20021;-62
2022/12/29 08:07:44;;;;;;;8.03;1.30;;;;;;;-145.18;100.00;114074.00;5053608;28;20090;-61
2022/12/29 08:10:10;;;;;;;6.03;1.97;;;;;;;-145.18;100.00;114074.00;5053015;28;20100;-61
2022/12/29 08:12:37;;;;;;;4.20;1.53;;;;;;;-145.18;100.00;114074.00;5052114;28;20112;-63
2022/12/29 08:15:03;;;;;;;4.97;1.30;;;;;;;-145.18;100.00;114074.00;5052852;28;20484;-61
2022/12/29 08:17:28;;;;;;;7.50;1.50;;;;;;;-145.18;100.00;114074.00;5046582;28;20033;-62
2022/12/29 08:19:53;;;;;;;4.53;1.23;;;;;;;-145.18;100.00;114074.00;5052850;28;20044;-62
2022/12/29 08:22:19;;;;;;;4.57;1.90;;;;;;;-145.18;100.00;114074.00;5053234;28;20028;-61
2022/12/29 08:24:44;;;;;;;5.80;1.47;;;;;;;-145.18;100.00;114074.00;5053306;28;20074;-61
2022/12/29 08:27:09;;;;;;;73.87;3.03;;;;;;;-145.18;100.00;114074.00;5051829;28;20456;-61
2022/12/29 08:29:35;;;;;;;8.60;1.70;;;;;;;6.33;100.00;149047.94;5052563;28;20025;-61
2022/12/29 08:32:00;;;;;;;6.27;1.47;;;;;;;6.33;100.00;149047.94;5053277;28;20032;-62
2022/12/29 08:34:26;;;;;;;4.37;1.50;;;;;;;6.33;100.00;149047.94;5051916;28;20025;-62
2022/12/29 08:36:51;;;;;;;7.70;1.30;;;;;;;6.33;100.00;149047.94;5051515;28;20082;-62
2022/12/29 08:39:16;;;;;;;7.73;1.90;;;;;;;6.33;100.00;149047.94;5046139;28;20032;-62
2022/12/29 08:41:42;;;;;;;6.97;1.40;;;;;;;-145.18;100.00;114074.00;5051867;28;20071;-62
2022/12/29 08:44:08;;;;;;;5.27;1.03;;;;;;;-145.18;100.00;114074.00;5053581;28;20074;-62
2022/12/29 08:46:33;;;;;;;6.70;1.30;;;;;;;-145.18;100.00;114074.00;5052529;28;20020;-61
2022/12/29 08:48:58;;;;;;;10.77;2.17;;;;;;;-145.18;100.00;114074.00;5052112;28;20033;-61
2022/12/29 08:51:24;;;;;;;12.37;2.33;;;;;;;-145.18;100.00;114074.00;5052054;28;20389;-62
2022/12/29 08:53:50;;;;;;;7.03;1.43;;;;;;;-145.18;100.00;114074.00;5052105;28;20107;-61
2022/12/29 08:56:16;;;;;;;7.23;1.20;;;;;;;-145.18;100.00;114074.00;5050969;28;20040;-61
2022/12/29 08:58:41;;;;;;;6.23;1.70;;;;;;;-145.18;100.00;114074.00;5053034;28;20048;-61
2022/12/29 09:01:06;;;;;;;7.73;1.30;;;;;;;6.33;100.00;149047.94;5052399;28;20392;-62
2022/12/29 09:03:32;;;;;;;6.30;1.30;;;;;;;6.33;100.00;149047.94;5048215;28;20116;-61
2022/12/29 09:05:57;;;;;;;7.87;2.17;;;;;;;;;;5047650;28;20032;-61
2022/12/29 09:08:23;;;;;;;8.23;2.30;;;;;;;6.33;100.00;149047.94;5045579;28;20030;-61
2022/12/29 09:10:49;;;;;;;5.37;1.03;;;;;;;6.33;100.00;149047.94;5043863;28;20524;-61
2022/12/29 09:13:15;;;;;;;8.80;1.27;;;;;;;-145.18;100.00;149047.94;5051400;28;20025;-61
2022/12/29 09:15:41;;;;;;;4.03;1.13;;;;;;;-145.18;100.00;114074.00;5046916;28;20465;-61
2022/12/29 09:18:08;;;;;;;5.73;1.00;;;;;;;-145.18;100.00;114074.00;5041906;28;20036;-62
2022/12/29 09:20:33;;;;;;;11.03;1.20;;;;;;;6.33;100.00;149047.94;5042490;28;20035;-61
2022/12/29 09:22:59;;;;;;;5.00;0.70;;;;;;;;;;5044474;28;20412;-63
2022/12/29 09:25:24;;;;;;;3.80;0.80;;;;;;;6.33;100.00;149047.94;5037370;28;20124;-62
2022/12/29 09:27:53;;;;;;;6.23;1.40;;;;;;;6.33;100.00;149047.94;5045691;28;20397;-62
2022/12/29 09:30:20;;;;;;;3.77;1.13;;;;;;;6.33;100.00;149047.94;5039486;28;20017;-61
2022/12/29 09:32:46;;;;;;;6.67;1.53;;;;;;;-145.18;100.00;114074.00;5043179;28;20031;-62
2022/12/29 09:35:13;;;;;;;6.73;1.37;;;;;;;6.33;100.00;149047.94;5040139;28;20470;-62
2022/12/29 09:37:38;;;;;;;6.73;1.10;;;;;;;-145.18;100.00;114074.00;5043622;28;20078;-62
2022/12/29 09:40:05;;;;;;;9.87;1.80;;;;;;;6.33;100.00;149047.94;5039119;28;20033;-62
2022/12/29 09:42:36;;;;;;;11.47;1.83;;;;;;;6.33;100.00;149047.94;5041423;28;20040;-64
2022/12/29 09:45:16;;;;;;;12.48;1.77;;;;;;;-145.18;100.00;114074.00;5040705;28;20139;-63
2022/12/29 09:47:44;;;;;;;6.17;1.10;;;;;;;-145.18;100.00;149047.94;5041811;28;20075;-63
2022/12/29 09:50:24;;;;;;;7.00;1.27;;;;;;;-145.18;100.00;114074.00;5040189;28;20031;-63
2022/12/29 09:53:15;;;;;;;5.93;1.30;;;;;;;-145.18;100.00;114074.00;5042022;28;20025;-63
2022/12/29 09:55:48;;;;;;;6.87;1.33;;;;;;;-145.18;100.00;114074.00;5040772;28;20029;-63
2022/12/29 09:58:33;;;;;;;7.87;1.33;;;;;;;-145.18;100.00;114074.00;5038871;28;20035;-63
2022/12/29 10:01:41;;;;;;;9.10;2.07;;;;;;;-145.18;100.00;114074.00;5037986;28;20901;-63
2022/12/29 10:04:07;;;;;;;10.37;1.80;;;;;;;-145.18;100.00;114074.00;5008960;28;20387;-63
2022/12/29 10:06:56;;;;;;;9.13;1.60;;;;;;;-145.18;100.00;114074.00;5041682;28;20025;-63
2022/12/29 10:09:30;;;;;;;8.53;1.70;;;;;;;-145.18;100.00;114074.00;5041651;28;20024;-63
2022/12/29 10:12:14;;;;;;;7.33;1.50;;;;;;;-145.18;100.00;114074.00;5038295;28;20565;-63
2022/12/29 10:14:58;;;;;;;6.37;1.60;;;;;;;-145.18;100.00;114074.00;5045423;28;20123;-62
2022/12/29 10:17:33;;;;;;;9.57;2.13;;;;;;;-145.18;100.00;114074.00;5032638;28;20092;-63
2022/12/29 10:20:45;;;;;;;6.27;1.37;;;;;;;-145.18;100.00;114074.00;5048275;28;20033;-62
2022/12/29 10:23:35;;;;;;;5.30;1.67;;;;;;;-145.18;100.00;114074.00;5025699;28;20517;-62
2022/12/29 10:26:02;;;;;;;7.30;1.53;;;;;;;-145.18;100.00;114074.00;5049027;28;20439;-63
2022/12/29 10:28:38;;;;;;;8.83;1.80;;;;;;;-145.18;100.00;114074.00;5047882;28;20423;-62
2022/12/29 10:31:20;;;;;;;6.43;1.43;;;;;;;-145.18;100.00;114074.00;5046074;28;20038;-62
2022/12/29 10:33:50;;;;;;;8.93;1.50;;;;;;;-145.18;100.00;114074.00;5037897;28;20120;-62
2022/12/29 10:36:30;;;;;;;10.83;1.63;;;;;;;-145.18;100.00;114074.00;5037605;28;20035;-62
2022/12/29 10:39:10;;;;;;;10.90;2.13;;;;;;;-145.18;100.00;114074.00;5044380;28;20029;-61
2022/12/29 10:41:45;;;;;;;8.33;1.70;;;;;;;-145.18;100.00;114074.00;5047386;28;20028;-62
2022/12/29 10:44:15;;;;;;;8.00;1.43;;;;;;;6.33;100.00;149047.94;5047472;28;20372;-62
2022/12/29 10:46:41;;;;;;;7.27;1.70;;;;;;;-145.18;100.00;114074.00;5034475;28;20110;-62
2022/12/29 10:49:16;;;;;;;6.53;1.63;;;;;;;-145.18;100.00;114074.00;5045717;28;20056;-63
2022/12/29 10:51:44;;;;;;;77.67;2.87;;;;;;;-145.18;100.00;149047.94;5040723;28;20039;-62
2022/12/29 10:54:15;;;;;;;4.57;1.17;;;;;;;6.33;100.00;149047.94;5044722;28;20459;-62
2022/12/29 10:56:54;;;;;;;7.28;1.40;;;;;;;6.33;100.00;149047.94;5040065;28;20468;-62
2022/12/29 10:59:30;;;;;;;5.33;1.30;;;;;;;6.33;100.00;149047.94;5038969;28;21651;-61
2022/12/29 11:02:04;;;;;;;6.57;1.73;;;;;;;6.33;100.00;149047.94;5039820;28;20799;-61
2022/12/29 11:04:58;;;;;;;7.93;1.87;;;;;;;6.33;100.00;149047.94;5036883;28;20036;-62
2022/12/29 11:07:25;;;;;;;10.90;1.77;;;;;;;6.33;100.00;149047.94;5031656;28;20032;-62
2022/12/29 11:09:51;;;;;;;9.33;1.83;;;;;;;6.33;100.00;149047.94;5032806;28;20059;-62
2022/12/29 11:12:23;;;;;;;9.27;1.60;;;;;;;6.33;100.00;149047.94;5035544;28;20036;-62
2022/12/29 11:15:09;;;;;;;5.93;1.38;;;;;;;6.33;100.00;149047.94;5031402;28;20138;-62
2022/12/29 11:17:57;;;;;;;6.83;1.57;;;;;;;6.33;100.00;149047.94;5035240;28;20048;-62
2022/12/29 11:20:34;;;;;;;3.40;1.23;;;;;;;6.33;100.00;149047.94;5035796;28;20039;-63
2022/12/29 11:23:02;;;;;;;8.23;1.23;;;;;;;-145.18;100.00;60484.78;5038925;28;20041;-62
2022/12/29 11:25:27;;;;;;;3.67;1.20;;;;;;;-145.18;100.00;60484.78;5036696;28;20029;-62
2022/12/29 11:27:57;;;;;;;11.20;1.70;;;;;;;-145.18;100.00;60484.78;5042511;28;20032;-61
2022/12/29 11:30:25;;;;;;;4.97;1.20;;;;;;;-145.18;100.00;60484.78;5041939;28;20043;-63
2022/12/29 11:32:53;;;;;;;6.17;1.10;;;;;;;-145.18;100.00;60484.78;5038907;28;20502;-63
2022/12/29 11:35:38;;;;;;;10.70;1.37;;;;;;;-145.18;100.00;60484.78;5042725;28;20027;-62
2022/12/29 11:38:05;;;;;;;7.33;1.10;;;;;;;-145.18;100.00;60484.78;5037197;28;21854;-64
2022/12/29 11:40:30;;;;;;;58.60;2.93;;;;;;;-145.18;100.00;60484.78;5040390;28;20098;-63
2022/12/29 11:43:02;;;;;;;8.60;1.43;;;;;;;-145.18;100.00;60484.78;5042158;28;20077;-62
2022/12/29 11:45:33;;;;;;;9.50;1.00;;;;;;;-145.18;100.00;60484.78;5047584;28;20520;-62
2022/12/29 11:48:05;;;;;;;4.95;0.85;;;;;;;-145.18;100.00;60484.78;5042547;28;20040;-63
2022/12/29 11:50:32;;;;;;;;;;;;;;;-145.18;100.00;60484.78;5045850;28;20037;-63
2022/12/29 11:52:59;;;;;;;6.47;1.13;;;;;;;-145.18;100.00;60484.78;5043360;28;21524;-63
2022/12/29 11:55:26;;;;;;;3.10;0.70;;;;;;;-145.18;100.00;60484.78;5048605;28;20021;-63
2022/12/29 11:57:55;;;;;;;7.43;1.33;;;;;;;-145.18;100.00;60484.78;5048501;28;20777;-63
2022/12/29 12:00:26;;;;;;;56.23;1.60;;;;;;;-145.18;100.00;60484.78;5044502;28;20715;-63
2022/12/29 12:03:01;;;;;;;9.73;2.13;;;;;;;-145.18;100.00;60484.78;5044282;28;20062;-63